createdAt,value
2018-12-13T00:02:21.927Z,15.70
2018-12-13T00:05:54.065Z,15.53
2018-12-13T00:08:23.124Z,15.90
2018-12-13T00:10:52.039Z,14.97
2018-12-13T00:13:20.967Z,14.73
2018-12-13T00:15:50.055Z,14.97
2018-12-13T00:18:19.098Z,15.57
2018-12-13T00:20:48.008Z,16.03
2018-12-13T00:24:19.902Z,14.97
2018-12-13T00:26:48.866Z,14.93
2018-12-13T00:29:17.792Z,15.73
2018-12-13T00:31:46.763Z,15.97
2018-12-13T00:34:15.991Z,18.00
2018-12-13T00:36:44.942Z,15.60
2018-12-13T00:39:13.866Z,17.30
2018-12-13T00:41:42.903Z,16.40
2018-12-13T00:44:11.870Z,16.40
2018-12-13T00:46:40.841Z,15.70
2018-12-13T00:49:09.820Z,15.77
2018-12-13T00:51:38.842Z,16.77
2018-12-13T00:54:07.835Z,15.90
2018-12-13T00:56:36.792Z,17.00
2018-12-13T00:59:05.689Z,19.97
2018-12-13T01:01:34.647Z,18.30
2018-12-13T01:04:03.768Z,17.83
2018-12-13T01:06:32.663Z,18.30
2018-12-13T01:09:01.556Z,18.90
2018-12-13T01:11:30.618Z,20.73
2018-12-13T01:13:59.656Z,17.27
2018-12-13T01:16:28.537Z,23.35
2018-12-13T01:18:57.547Z,21.97
2018-12-13T01:21:26.453Z,19.30
2018-12-13T01:23:55.436Z,18.00
2018-12-13T01:26:24.313Z,18.60
2018-12-13T01:28:53.182Z,19.63
2018-12-13T01:31:22.134Z,20.50
2018-12-13T01:33:51.092Z,17.70
2018-12-13T01:36:19.984Z,20.27
2018-12-13T01:38:49.018Z,17.67
2018-12-13T01:41:18.120Z,19.03
2018-12-13T01:43:47.095Z,20.37
2018-12-13T01:46:16.053Z,18.40
2018-12-13T01:48:45.044Z,18.17
2018-12-13T01:51:14.027Z,22.27
2018-12-13T01:53:42.963Z,19.83
2018-12-13T01:56:11.960Z,20.80
2018-12-13T01:58:40.833Z,19.13
2018-12-13T02:01:09.816Z,19.97
2018-12-13T02:03:38.668Z,18.07
2018-12-13T02:06:07.609Z,21.20
2018-12-13T02:08:36.727Z,19.07
2018-12-13T02:11:05.765Z,20.30
2018-12-13T02:13:34.677Z,19.20
2018-12-13T02:16:03.541Z,21.95
2018-12-13T02:18:32.579Z,22.20
2018-12-13T02:21:02.431Z,26.43
2018-12-13T02:23:31.357Z,21.93
2018-12-13T02:26:00.305Z,21.00
2018-12-13T02:28:29.311Z,17.30
2018-12-13T02:30:58.267Z,19.47
2018-12-13T02:33:27.217Z,21.90
2018-12-13T02:35:56.139Z,18.77
2018-12-13T02:38:25.124Z,21.00
2018-12-13T02:40:54.042Z,22.07
2018-12-13T02:43:23.033Z,21.60
2018-12-13T02:45:52.017Z,20.90
2018-12-13T02:48:21.209Z,19.10
2018-12-13T02:50:50.088Z,19.73
2018-12-13T02:53:18.981Z,18.97
2018-12-13T02:55:47.989Z,18.40
2018-12-13T02:58:16.993Z,20.03
2018-12-13T03:00:46.062Z,21.17
2018-12-13T03:03:14.989Z,20.97
2018-12-13T03:05:43.972Z,21.33
2018-12-13T03:08:13.072Z,22.40
2018-12-13T03:10:42.035Z,21.70
2018-12-13T03:13:10.917Z,20.27
2018-12-13T03:15:39.834Z,21.60
2018-12-13T03:18:08.765Z,22.70
2018-12-13T03:20:37.742Z,20.17
2018-12-13T03:23:06.914Z,21.43
2018-12-13T03:25:35.909Z,21.10
2018-12-13T03:28:04.889Z,21.60
2018-12-13T03:30:33.781Z,20.83
2018-12-13T03:33:02.673Z,21.03
2018-12-13T03:35:31.584Z,21.40
2018-12-13T03:38:00.548Z,22.07
2018-12-13T03:40:29.462Z,21.17
2018-12-13T03:42:58.560Z,19.53
2018-12-13T03:45:27.536Z,21.13
2018-12-13T03:47:56.491Z,20.47
2018-12-13T03:50:25.434Z,19.37
2018-12-13T03:52:54.417Z,21.23
2018-12-13T03:55:23.304Z,20.00
2018-12-13T03:57:52.212Z,22.20
2018-12-13T04:00:21.279Z,23.23
2018-12-13T04:02:50.185Z,21.23
2018-12-13T04:05:19.171Z,20.93
2018-12-13T04:07:48.086Z,21.90
2018-12-13T04:10:17.153Z,19.30
2018-12-13T04:12:46.060Z,20.70
2018-12-13T04:15:15.110Z,21.03
2018-12-13T04:17:44.079Z,22.93
2018-12-13T04:20:13.017Z,22.30
2018-12-13T04:22:41.934Z,22.30
2018-12-13T04:25:10.927Z,20.93
2018-12-13T04:27:39.894Z,21.77
2018-12-13T04:30:08.952Z,23.43
2018-12-13T04:32:37.904Z,20.37
2018-12-13T04:35:06.997Z,22.90
2018-12-13T04:37:35.889Z,22.20
2018-12-13T04:40:05.100Z,20.40
2018-12-13T04:42:34.070Z,19.97
2018-12-13T04:45:03.208Z,20.60
2018-12-13T04:47:32.154Z,20.70
2018-12-13T04:50:01.048Z,19.27
2018-12-13T04:52:30.070Z,21.93
2018-12-13T04:54:59.055Z,21.80
2018-12-13T04:57:28.007Z,21.70
2018-12-13T04:59:56.942Z,23.17
2018-12-13T05:02:25.799Z,23.23
2018-12-13T05:04:54.700Z,20.73
2018-12-13T05:07:23.700Z,21.13
2018-12-13T05:09:52.585Z,21.43
2018-12-13T05:12:21.504Z,20.10
2018-12-13T05:14:50.489Z,20.37
2018-12-13T05:17:19.364Z,22.43
2018-12-13T05:19:48.395Z,22.30
2018-12-13T05:22:17.398Z,23.70
2018-12-13T05:24:46.339Z,21.27
2018-12-13T05:27:15.252Z,22.33
2018-12-13T05:29:44.249Z,21.43
2018-12-13T05:32:13.248Z,20.90
2018-12-13T05:34:42.008Z,19.97
2018-12-13T05:37:10.773Z,22.23
2018-12-13T05:39:39.817Z,22.37
2018-12-13T05:42:08.812Z,21.07
2018-12-13T05:44:37.820Z,20.97
2018-12-13T05:47:06.761Z,20.07
2018-12-13T05:49:35.702Z,21.37
2018-12-13T05:52:04.645Z,20.13
2018-12-13T05:54:33.653Z,21.23
2018-12-13T05:57:02.532Z,21.33
2018-12-13T05:59:31.550Z,21.63
2018-12-13T06:02:00.553Z,20.80
2018-12-13T06:04:29.517Z,19.87
2018-12-13T06:06:58.421Z,19.23
2018-12-13T06:09:27.313Z,20.37
2018-12-13T06:11:56.302Z,19.00
2018-12-13T06:14:25.213Z,18.53
2018-12-13T06:16:54.035Z,17.93
2018-12-13T06:19:26.656Z,19.73
2018-12-13T06:21:53.897Z,19.33
2018-12-13T06:24:22.797Z,17.67
2018-12-13T06:26:51.686Z,18.07
2018-12-13T06:29:20.618Z,18.53
2018-12-13T06:31:49.683Z,18.00
2018-12-13T06:34:18.679Z,18.93
2018-12-13T06:36:47.573Z,18.87
2018-12-13T06:39:16.581Z,17.40
2018-12-13T06:41:45.654Z,16.80
2018-12-13T06:44:14.552Z,17.53
2018-12-13T06:46:43.678Z,17.97
2018-12-13T06:49:12.626Z,17.17
2018-12-13T06:51:41.523Z,16.77
2018-12-13T06:54:13.715Z,18.10
2018-12-13T06:56:42.982Z,17.00
2018-12-13T06:59:12.241Z,17.20
2018-12-13T07:01:41.297Z,16.97
2018-12-13T07:04:10.187Z,16.17
2018-12-13T07:06:39.036Z,16.97
2018-12-13T07:09:08.214Z,16.67
2018-12-13T07:11:37.127Z,21.37
2018-12-13T07:14:06.473Z,15.93
2018-12-13T07:16:35.910Z,21.62
2018-12-13T07:19:04.932Z,18.10
2018-12-13T07:21:33.893Z,17.13
2018-12-13T07:24:02.840Z,16.40
2018-12-13T07:26:31.745Z,16.90
2018-12-13T07:29:00.742Z,17.40
2018-12-13T07:31:30.289Z,15.83
2018-12-13T07:33:59.725Z,17.43
2018-12-13T07:36:29.069Z,16.80
2018-12-13T07:38:58.118Z,15.63
2018-12-13T07:41:30.783Z,18.17
2018-12-13T07:43:59.931Z,17.20
2018-12-13T07:46:29.049Z,16.20
2018-12-13T07:48:58.139Z,16.40
2018-12-13T07:51:27.296Z,18.40
2018-12-13T07:53:56.237Z,16.77
2018-12-13T07:56:25.191Z,15.40
2018-12-13T07:58:54.078Z,16.20
2018-12-13T08:01:23.235Z,16.47
2018-12-13T08:03:52.703Z,15.03
2018-12-13T08:06:21.630Z,15.27
2018-12-13T08:08:50.608Z,13.20
2018-12-13T08:11:19.552Z,15.83
2018-12-13T08:13:48.456Z,19.00
2018-12-13T08:16:17.571Z,17.03
2018-12-13T08:18:46.539Z,16.03
2018-12-13T08:21:15.564Z,15.57
2018-12-13T08:23:44.547Z,16.43
2018-12-13T08:26:13.741Z,15.90
2018-12-13T08:28:42.952Z,14.57
2018-12-13T08:31:11.985Z,15.77
2018-12-13T08:33:41.044Z,14.23
2018-12-13T08:36:10.022Z,15.30
2018-12-13T08:38:39.019Z,13.93
2018-12-13T08:41:08.084Z,16.03
2018-12-13T08:43:37.013Z,14.80
2018-12-13T08:46:05.995Z,14.10
2018-12-13T08:48:34.974Z,12.50
2018-12-13T08:51:03.871Z,13.70
2018-12-13T08:53:32.993Z,12.60
2018-12-13T08:56:02.075Z,14.23
2018-12-13T08:58:31.166Z,13.67
2018-12-13T09:01:00.072Z,12.87
2018-12-13T09:03:29.036Z,12.97
2018-12-13T09:05:57.938Z,13.83
2018-12-13T09:08:33.439Z,14.80
2018-12-13T09:10:58.186Z,13.00
2018-12-13T09:13:27.165Z,12.90
2018-12-13T09:15:56.207Z,12.90
2018-12-13T09:18:25.147Z,14.40
2018-12-13T09:20:53.936Z,12.60
2018-12-13T09:23:22.849Z,12.87
2018-12-13T09:25:51.832Z,13.50
2018-12-13T09:28:20.816Z,11.70
2018-12-13T09:30:49.841Z,14.07
2018-12-13T09:33:18.803Z,13.57
2018-12-13T09:35:47.719Z,11.97
2018-12-13T09:38:16.720Z,12.73
2018-12-13T09:40:45.694Z,11.63
2018-12-13T09:43:14.780Z,10.77
2018-12-13T09:45:43.706Z,12.47
2018-12-13T09:48:12.857Z,10.77
2018-12-13T09:50:41.884Z,9.93
2018-12-13T09:53:10.881Z,9.67
2018-12-13T09:55:39.830Z,9.03
2018-12-13T09:58:08.725Z,9.70
2018-12-13T10:00:37.618Z,9.53
2018-12-13T10:03:06.618Z,10.27
2018-12-13T10:05:35.513Z,10.37
2018-12-13T10:08:04.518Z,10.17
2018-12-13T10:10:33.403Z,8.77
2018-12-13T10:13:02.395Z,9.30
2018-12-13T10:15:32.161Z,9.23
2018-12-13T10:18:01.442Z,7.10
2018-12-13T10:20:30.387Z,8.63
2018-12-13T10:22:59.371Z,10.13
2018-12-13T10:25:28.285Z,9.10
2018-12-13T10:27:57.262Z,9.37
2018-12-13T10:30:26.628Z,9.20
2018-12-13T10:32:55.699Z,9.57
2018-12-13T10:35:24.689Z,9.17
2018-12-13T10:37:53.645Z,8.13
2018-12-13T10:40:22.562Z,8.93
2018-12-13T10:42:51.496Z,9.87
2018-12-13T10:45:20.455Z,8.57
2018-12-13T10:47:49.524Z,8.23
2018-12-13T10:50:18.518Z,7.47
2018-12-13T10:52:47.477Z,8.13
2018-12-13T10:55:16.443Z,8.20
2018-12-13T10:57:45.402Z,9.47
2018-12-13T11:00:19.606Z,7.63
2018-12-13T11:03:01.650Z,8.60
2018-12-13T11:05:30.631Z,8.40
2018-12-13T11:07:59.605Z,7.87
2018-12-13T11:10:28.455Z,7.60
2018-12-13T11:12:57.408Z,8.83
2018-12-13T11:15:26.333Z,7.77
2018-12-13T11:17:55.378Z,7.77
2018-12-13T11:20:24.396Z,7.73
2018-12-13T11:22:53.456Z,7.10
2018-12-13T11:25:22.364Z,7.53
2018-12-13T11:30:35.630Z,8.43
2018-12-13T11:33:04.816Z,6.67
2018-12-13T11:35:33.805Z,6.80
2018-12-13T11:38:02.885Z,6.83
2018-12-13T11:40:32.742Z,5.90
2018-12-13T11:43:01.772Z,6.63
2018-12-13T11:45:30.908Z,6.20
2018-12-13T11:47:59.891Z,7.07
2018-12-13T11:50:28.869Z,7.53
2018-12-13T11:52:57.778Z,6.33
2018-12-13T11:55:33.239Z,5.47
2018-12-13T11:58:02.598Z,6.23
2018-12-13T12:00:31.521Z,5.37
2018-12-13T12:03:00.481Z,6.23
2018-12-13T12:05:29.377Z,5.53
2018-12-13T12:07:58.394Z,6.20
2018-12-13T12:10:27.583Z,5.73
2018-12-13T12:12:56.564Z,6.00
2018-12-13T12:15:25.477Z,5.53
2018-12-13T12:17:54.385Z,5.77
2018-12-13T12:20:23.346Z,5.70
2018-12-13T12:22:52.239Z,7.27
2018-12-13T12:25:21.007Z,6.07
2018-12-13T12:27:49.935Z,6.30
2018-12-13T12:30:18.936Z,6.63
2018-12-13T12:32:47.892Z,6.30
2018-12-13T12:35:16.910Z,5.97
2018-12-13T12:37:45.881Z,5.73
2018-12-13T12:40:14.759Z,6.27
2018-12-13T12:42:43.820Z,5.83
2018-12-13T12:45:12.863Z,6.33
2018-12-13T12:47:41.880Z,8.77
2018-12-13T12:50:10.707Z,6.97
2018-12-13T12:52:39.576Z,7.50
2018-12-13T12:55:08.658Z,6.83
2018-12-13T12:57:37.749Z,7.37
2018-12-13T13:00:07.746Z,7.83
2018-12-13T13:02:36.957Z,6.67
2018-12-13T13:05:06.027Z,6.33
2018-12-13T13:07:34.982Z,7.97
2018-12-13T13:10:04.220Z,7.33
2018-12-13T13:12:33.123Z,7.03
2018-12-13T13:15:02.039Z,7.20
2018-12-13T13:17:30.942Z,7.50
2018-12-13T13:19:59.957Z,7.30
2018-12-13T13:22:28.991Z,6.70
2018-12-13T13:24:58.011Z,7.87
2018-12-13T13:27:27.106Z,6.53
2018-12-13T13:29:56.194Z,8.37
2018-12-13T13:32:25.016Z,6.63
2018-12-13T13:34:53.978Z,7.17
2018-12-13T13:37:22.923Z,8.00
2018-12-13T13:39:51.866Z,8.10
2018-12-13T13:42:20.869Z,8.47
2018-12-13T13:44:51.986Z,8.40
2018-12-13T13:47:20.886Z,8.30
2018-12-13T13:49:49.854Z,7.93
2018-12-13T13:52:18.764Z,8.07
2018-12-13T13:54:47.784Z,7.87
2018-12-13T13:57:16.772Z,8.07
2018-12-13T13:59:45.862Z,7.33
2018-12-13T14:02:14.859Z,8.53
2018-12-13T14:04:43.750Z,8.07
2018-12-13T14:07:12.550Z,7.33
2018-12-13T14:09:41.720Z,7.10
2018-12-13T14:12:10.623Z,6.47
2018-12-13T14:14:39.601Z,6.53
2018-12-13T14:17:08.609Z,6.07
2018-12-13T14:19:37.614Z,6.93
2018-12-13T14:22:06.716Z,6.20
2018-12-13T14:24:35.809Z,6.60
2018-12-13T14:27:05.235Z,6.30
2018-12-13T14:29:34.381Z,7.23
2018-12-13T14:32:03.313Z,5.93
2018-12-13T14:34:32.426Z,7.23
2018-12-13T14:37:01.377Z,5.97
2018-12-13T14:39:30.372Z,6.03
2018-12-13T14:41:59.468Z,6.23
2018-12-13T14:44:28.445Z,6.30
2018-12-13T14:46:57.343Z,6.37
2018-12-13T14:49:26.305Z,5.73
2018-12-13T14:51:55.076Z,5.77
2018-12-13T14:54:24.149Z,6.07
2018-12-13T14:56:53.122Z,7.03
2018-12-13T14:59:22.098Z,5.83
2018-12-13T15:01:51.019Z,6.10
2018-12-13T15:04:19.981Z,5.80
2018-12-13T15:06:48.885Z,6.43
2018-12-13T15:09:17.797Z,5.93
2018-12-13T15:11:46.837Z,5.43
2018-12-13T15:14:15.648Z,5.87
2018-12-13T15:16:44.637Z,5.70
2018-12-13T15:19:13.551Z,5.77
2018-12-13T15:21:42.529Z,6.00
2018-12-13T15:24:11.407Z,7.03
2018-12-13T15:26:40.323Z,6.53
2018-12-13T15:29:09.283Z,7.42
2018-12-13T15:31:38.272Z,7.80
2018-12-13T15:34:07.179Z,6.67
2018-12-13T15:36:36.104Z,6.70
2018-12-13T15:39:06.653Z,6.97
2018-12-13T15:41:35.638Z,6.40
2018-12-13T15:44:04.681Z,7.50
2018-12-13T15:46:33.776Z,7.60
2018-12-13T15:49:02.721Z,8.07
2018-12-13T15:51:31.800Z,7.70
2018-12-13T15:54:00.875Z,8.30
2018-12-13T15:56:29.890Z,8.43
2018-12-13T15:58:58.982Z,7.40
2018-12-13T16:01:28.069Z,7.67
2018-12-13T16:03:56.983Z,7.73
2018-12-13T16:06:25.962Z,8.13
2018-12-13T16:08:55.048Z,7.37
2018-12-13T16:11:23.934Z,7.57
2018-12-13T16:13:52.836Z,8.13
2018-12-13T16:16:21.867Z,8.23
2018-12-13T16:18:51.010Z,9.47
2018-12-13T16:21:20.221Z,8.03
2018-12-13T16:23:49.512Z,8.80
2018-12-13T16:26:18.413Z,9.57
2018-12-13T16:28:48.142Z,9.10
2018-12-13T16:31:17.203Z,8.57
2018-12-13T16:33:46.294Z,9.20
2018-12-13T16:36:15.302Z,8.70
2018-12-13T16:38:44.438Z,9.47
2018-12-13T16:41:13.723Z,9.10
2018-12-13T16:43:43.217Z,8.27
2018-12-13T16:46:12.434Z,9.77
2018-12-13T16:48:42.132Z,8.70
2018-12-13T16:51:11.224Z,9.57
2018-12-13T16:53:40.204Z,9.37
2018-12-13T16:56:09.238Z,10.40
2018-12-13T16:58:38.340Z,8.70
2018-12-13T17:01:07.754Z,9.00
2018-12-13T17:03:40.385Z,8.53
2018-12-13T17:06:09.477Z,9.17
2018-12-13T17:08:38.614Z,9.40
2018-12-13T17:11:07.759Z,9.43
2018-12-13T17:13:36.755Z,9.83
2018-12-13T17:16:05.874Z,9.30
2018-12-13T17:18:34.878Z,11.80
2018-12-13T17:21:04.032Z,10.20
2018-12-13T17:23:32.984Z,9.80
2018-12-13T17:26:01.851Z,11.27
2018-12-13T17:28:31.217Z,10.27
2018-12-13T17:31:00.099Z,10.50
2018-12-13T17:33:29.114Z,9.30
2018-12-13T17:35:58.326Z,10.57
2018-12-13T17:38:27.439Z,9.27
2018-12-13T17:40:56.494Z,9.67
2018-12-13T17:43:25.540Z,9.97
2018-12-13T17:45:54.590Z,13.30
2018-12-13T17:48:23.521Z,11.28
2018-12-13T17:50:52.509Z,10.60
2018-12-13T17:53:21.464Z,9.77
2018-12-13T17:55:50.392Z,14.10
2018-12-13T17:58:19.366Z,10.23
2018-12-13T18:00:48.295Z,12.20
2018-12-13T18:03:17.375Z,10.70
2018-12-13T18:05:47.208Z,11.33
2018-12-13T18:08:16.181Z,10.70
2018-12-13T18:10:45.147Z,10.80
2018-12-13T18:13:14.284Z,13.03
2018-12-13T18:15:43.885Z,11.13
2018-12-13T18:18:12.852Z,15.38
2018-12-13T18:20:41.957Z,12.37
2018-12-13T18:23:10.929Z,11.53
2018-12-13T18:25:40.144Z,11.33
2018-12-13T18:28:09.345Z,14.87
2018-12-13T18:30:38.363Z,12.83
2018-12-13T18:33:07.453Z,14.60
2018-12-13T18:35:36.463Z,12.83
2018-12-13T18:38:05.453Z,14.13
2018-12-13T18:40:35.723Z,13.27
2018-12-13T18:43:04.821Z,11.07
2018-12-13T18:45:36.808Z,11.28
2018-12-13T18:48:06.386Z,11.73
2018-12-13T18:50:35.300Z,14.35
2018-12-13T18:53:04.537Z,12.83
2018-12-13T18:55:33.481Z,12.67
2018-12-13T18:58:02.467Z,11.97
2018-12-13T19:00:31.574Z,17.40
2018-12-13T19:03:00.575Z,17.60
2018-12-13T19:05:29.581Z,16.83
2018-12-13T19:07:58.601Z,19.57
2018-12-13T19:10:27.612Z,17.75
2018-12-13T19:12:56.665Z,15.80
2018-12-13T19:15:25.794Z,14.80
2018-12-13T19:17:54.868Z,14.10
2018-12-13T19:20:23.859Z,13.07
2018-12-13T19:22:53.046Z,14.03
2018-12-13T19:25:22.164Z,16.57
2018-12-13T19:27:51.174Z,13.87
2018-12-13T19:30:20.214Z,17.73
2018-12-13T19:32:49.209Z,14.10
2018-12-13T19:35:19.441Z,14.17
2018-12-13T19:37:48.729Z,13.77
2018-12-13T19:40:17.682Z,13.70
2018-12-13T19:42:46.648Z,13.20
2018-12-13T19:45:15.621Z,13.73
2018-12-13T19:47:44.592Z,13.53
2018-12-13T19:50:13.593Z,17.50
2018-12-13T19:52:42.581Z,16.07
2018-12-13T19:55:11.509Z,18.27
2018-12-13T19:57:40.597Z,16.43
2018-12-13T20:00:10.204Z,15.30
2018-12-13T20:02:39.205Z,15.17
2018-12-13T20:05:08.303Z,14.50
2018-12-13T20:07:37.367Z,15.90
2018-12-13T20:10:07.537Z,15.27
2018-12-13T20:12:36.650Z,16.87
2018-12-13T20:15:06.363Z,15.30
2018-12-13T20:17:35.305Z,15.47
2018-12-13T20:20:05.075Z,15.07
2018-12-13T20:22:35.046Z,14.80
2018-12-13T20:25:04.233Z,15.33
2018-12-13T20:27:33.364Z,16.63
2018-12-13T20:30:02.498Z,16.70
2018-12-13T20:32:31.592Z,19.90
2018-12-13T20:35:00.831Z,18.17
2018-12-13T20:37:29.826Z,16.20
2018-12-13T20:39:58.907Z,15.93
2018-12-13T20:42:28.001Z,15.83
2018-12-13T20:44:57.074Z,15.83
2018-12-13T20:47:26.124Z,15.57
2018-12-13T20:49:55.106Z,17.37
2018-12-13T20:52:24.080Z,16.63
2018-12-13T20:54:53.172Z,15.93
2018-12-13T20:57:22.282Z,15.60
2018-12-13T20:59:51.377Z,15.23
2018-12-13T21:02:20.502Z,16.70
2018-12-13T21:04:49.551Z,17.23
2018-12-13T21:07:23.793Z,16.33
2018-12-13T21:09:53.552Z,17.27
2018-12-13T21:12:22.589Z,17.43
2018-12-13T21:14:51.755Z,17.13
2018-12-13T21:17:20.683Z,16.50
2018-12-13T21:19:49.662Z,17.57
2018-12-13T21:22:18.881Z,18.37
2018-12-13T21:24:48.961Z,17.97
2018-12-13T21:27:18.210Z,17.13
2018-12-13T21:29:47.213Z,17.30
2018-12-13T21:32:16.361Z,17.57
2018-12-13T21:34:45.543Z,16.27
2018-12-13T21:37:14.396Z,15.80
2018-12-13T21:39:43.355Z,16.57
2018-12-13T21:42:12.513Z,16.57
2018-12-13T21:44:41.423Z,17.57
2018-12-13T21:47:10.457Z,15.50
2018-12-13T21:49:39.632Z,16.67
2018-12-13T21:52:08.739Z,17.03
2018-12-13T21:54:37.847Z,16.30
2018-12-13T21:57:07.137Z,17.17
2018-12-13T21:59:36.222Z,17.00
2018-12-13T22:02:05.397Z,16.70
2018-12-13T22:04:34.504Z,16.80
2018-12-13T22:07:03.541Z,18.03
2018-12-13T22:09:32.466Z,16.57
2018-12-13T22:12:03.357Z,17.80
2018-12-13T22:14:32.936Z,19.57
2018-12-13T22:17:02.119Z,21.60
2018-12-13T22:19:31.122Z,23.07
2018-12-13T22:22:00.224Z,20.73
2018-12-13T22:24:29.308Z,22.40
2018-12-13T22:26:58.301Z,19.40
2018-12-13T22:29:27.507Z,17.73
2018-12-13T22:31:56.840Z,16.83
2018-12-13T22:34:26.485Z,16.80
2018-12-13T22:36:55.870Z,18.97
2018-12-13T22:39:24.921Z,16.50
2018-12-13T22:41:54.558Z,16.87
2018-12-13T22:44:23.552Z,17.27
2018-12-13T22:46:52.515Z,18.20
2018-12-13T22:49:21.638Z,17.47
2018-12-13T22:51:50.628Z,18.33
2018-12-13T22:54:19.589Z,16.47
2018-12-13T22:56:48.538Z,17.70
2018-12-13T22:59:17.575Z,18.87
2018-12-13T23:01:46.671Z,17.93
2018-12-13T23:04:15.765Z,16.73
2018-12-13T23:06:44.769Z,18.30
2018-12-13T23:09:13.863Z,18.77
2018-12-13T23:11:42.842Z,18.83
2018-12-13T23:14:11.768Z,17.83
2018-12-13T23:16:40.732Z,16.43
2018-12-13T23:19:09.833Z,19.63
2018-12-13T23:21:39.011Z,17.37
2018-12-13T23:24:07.942Z,18.53
2018-12-13T23:26:36.935Z,18.50
2018-12-13T23:29:06.138Z,19.83
2018-12-13T23:31:35.089Z,19.13
2018-12-13T23:34:04.175Z,19.30
2018-12-13T23:36:33.097Z,19.83
2018-12-13T23:39:02.129Z,18.30
2018-12-13T23:41:31.062Z,19.50
2018-12-13T23:43:59.948Z,20.43
2018-12-13T23:46:28.855Z,18.60
2018-12-13T23:48:57.882Z,18.83
2018-12-13T23:51:26.951Z,19.23
2018-12-13T23:53:56.053Z,19.10
2018-12-13T23:56:25.041Z,18.70
2018-12-13T23:58:54.480Z,18.83
